sim
Sign-in with your pilot id or email,
or register
Callsign
Passwort

Schedule Details

Flight Number: GEC8371 (A)
Departure: Mumbai Chhatrapati Shivaji International Airport (VABB) at 02:40
Arrival: Hyderabad Rajiv Gandhi International Airport (VOHS) at 04:05
Route: Lufthansa Cargo Cargo Schedule. Enter filed route here before submitting Pirep.

Weather Information
Getting current METAR information for VABB 152300Z 00000KT 2100 HZ NSC 24/20 Q1011 NOSIG
Getting current METAR information for VOHS 152300Z 14003KT 3000 BR FEW015 16/15 Q1016 TEMPO 1500

Schedule Frequency

Route Map